Euskara    
Meteorología y climatología de Navarra
Datos de la estación - Meteo Navarra

Estación de Etxarri-Aranatz GN

Altitud 505 m.


Datos desde el 23/02/2021 hasta el 24/02/2021 en horario solar
Los datos son PROVISIONALES

Anterior Página 1 de 1 Siguiente Descargar: Formato para Excel 2000 o superior   Formato csv   Formato para OpenOffice Calc
Fecha Temperatura Humedad relativa Radiación global Insolación Precipitación Vel. viento 10 m Vel. viento 10 m Dir. viento 10 m
°C % W/m² s l/m² m/s km/h °
23/02/2021 0:00 4.7 99 0.0 0 0.0 0.2 0.6 223
23/02/2021 0:10 4.6 99 0.0 0 0.0 0.2 0.9 324
23/02/2021 0:20 4.7 99 0.0 0 0.0 0.7 2.5 325
23/02/2021 0:30 4.8 99 0.0 0 0.0 0.8 2.8 307
23/02/2021 0:40 4.7 99 0.0 0 0.0 0.5 1.9 288
23/02/2021 0:50 4.7 99 0.0 0 0.0 0.8 2.7 273
23/02/2021 1:00 4.6 99 0.0 0 0.0 0.6 2.1 272
23/02/2021 1:10 4.6 99 0.0 0 0.0 0.5 1.9 172
23/02/2021 1:20 4.5 99 0.0 0 0.0 0.6 2.1 341
23/02/2021 1:30 4.7 99 0.0 0 0.0 1.0 3.5 197
23/02/2021 1:40 4.6 99 0.0 0 0.0 0.7 2.4 64
23/02/2021 1:50 4.7 99 0.0 0 0.0 0.6 2.1 36
23/02/2021 2:00 4.8 99 0.0 0 0.0 1.2 4.2 60
23/02/2021 2:10 5.9 99 0.0 0 0.0 2.0 7.3 138
23/02/2021 2:20 6.5 99 0.0 0 0.0 3.1 11.2 145
23/02/2021 2:30 6.8 95 0.0 0 0.0 3.1 11.1 127
23/02/2021 2:40 7.3 91 0.0 0 0.0 2.9 10.4 126
23/02/2021 2:50 7.5 88 0.0 0 0.0 2.9 10.5 148
23/02/2021 3:00 7.7 86 0.0 0 0.0 3.6 12.8 155
23/02/2021 3:10 7.8 84 0.0 0 0.0 3.2 11.6 161
23/02/2021 3:20 7.9 82 0.0 0 0.0 4.4 15.7 149
23/02/2021 3:30 7.9 83 0.0 0 0.0 5.7 20.3 157
23/02/2021 3:40 8.0 82 0.0 0 0.0 5.2 18.7 158
23/02/2021 3:50 8.0 83 0.0 0 0.0 4.9 17.7 162
23/02/2021 4:00 7.8 82 0.0 0 0.0 5.2 18.6 158
23/02/2021 4:10 7.9 83 0.0 0 0.0 5.2 18.6 158
23/02/2021 4:20 7.9 82 0.0 0 0.0 4.5 16.1 153
23/02/2021 4:30 7.9 82 0.0 0 0.0 4.7 17.0 159
23/02/2021 4:40 7.9 81 0.0 0 0.0 5.4 19.3 166
23/02/2021 4:50 8.0 80 0.0 0 0.0 4.8 17.4 178
23/02/2021 5:00 8.0 79 0.0 0 0.0 4.8 17.2 147
23/02/2021 5:10 7.9 79 0.0 0 0.0 3.7 13.2 158
23/02/2021 5:20 7.6 80 0.0 0 0.0 3.7 13.4 140
23/02/2021 5:30 7.6 81 0.0 0 0.0 4.1 14.8 149
23/02/2021 5:40 7.5 81 0.0 0 0.0 4.3 15.6 151
23/02/2021 5:50 7.5 81 0.0 0 0.0 3.1 11.0 144
23/02/2021 6:00 7.4 82 0.0 0 0.0 4.1 14.9 157
23/02/2021 6:10 7.4 81 0.0 0 0.0 4.5 16.0 143
23/02/2021 6:20 7.3 82 0.0 0 0.0 4.3 15.3 147
23/02/2021 6:30 7.2 82 0.0 0 0.0 4.7 16.8 145
23/02/2021 6:40 7.3 81 0.0 0 0.0 5.8 20.7 155
23/02/2021 6:50 7.3 81 0.0 0 0.0 5.3 19.1 152
23/02/2021 7:00 7.5 79 0.0 0 0.0 6.1 21.9 162
23/02/2021 7:10 7.4 78 0.0 0 0.0 4.8 17.2 159
23/02/2021 7:20 7.7 78 13.8 0 0.0 7.2 26.0 166
23/02/2021 7:30 7.7 78 28.7 0 0.0 6.4 22.9 167
23/02/2021 7:40 7.7 79 35.6 0 0.0 5.1 18.5 175
23/02/2021 7:50 7.7 79 35.7 0 0.0 7.1 25.4 169
23/02/2021 8:00 7.9 78 66.2 96 0.0 6.6 23.9 163
23/02/2021 8:10 8.2 78 155.4 452 0.0 6.5 23.3 174
23/02/2021 8:20 8.7 76 192.8 494 0.0 7.0 25.1 174
23/02/2021 8:30 8.7 76 206.7 468 0.0 7.5 26.8 171
23/02/2021 8:40 8.9 77 325.6 598 0.0 6.8 24.6 168
23/02/2021 8:50 9.2 76 334.4 556 0.0 7.6 27.5 172
23/02/2021 9:00 9.0 77 365.6 600 0.0 7.8 28.0 176
23/02/2021 9:10 9.1 76 384.5 588 0.0 8.3 29.7 172
23/02/2021 9:20 9.3 75 439.3 600 0.0 7.4 26.5 168
23/02/2021 9:30 9.7 74 458.8 578 0.0 7.4 26.6 170
23/02/2021 9:40 9.7 73 521.0 592 0.0 7.4 26.7 159
23/02/2021 9:50 9.8 72 480.2 518 0.0 7.3 26.2 166
23/02/2021 10:00 9.6 75 338.9 576 0.0 6.5 23.3 168
23/02/2021 10:10 9.7 76 444.9 544 0.0 6.9 24.9 167
23/02/2021 10:20 9.8 76 457.9 592 0.0 8.1 29.3 166
23/02/2021 10:30 9.8 77 375.1 384 0.0 7.2 25.9 164
23/02/2021 10:40 9.6 76 377.9 346 0.0 7.1 25.7 157
23/02/2021 10:50 10.0 75 445.3 424 0.0 8.9 32.0 161
23/02/2021 11:00 10.0 74 433.0 372 0.0 8.5 30.7 160
23/02/2021 11:10 10.8 72 576.7 508 0.0 7.2 25.8 167
23/02/2021 11:20 11.2 70 686.0 574 0.0 7.9 28.3 170
23/02/2021 11:30 11.7 68 727.7 600 0.0 8.0 28.8 167
23/02/2021 11:40 11.6 67 597.9 498 0.0 7.7 27.5 163
23/02/2021 11:50 11.6 68 431.7 320 0.0 7.1 25.6 157
23/02/2021 12:00 11.2 67 328.3 148 0.0 7.0 25.3 152
23/02/2021 12:10 11.2 67 395.5 220 0.0 6.4 23.0 147
23/02/2021 12:20 11.9 64 439.8 276 0.0 6.3 22.8 140
23/02/2021 12:30 11.7 65 338.4 202 0.0 6.9 24.7 143
23/02/2021 12:40 11.8 65 354.0 224 0.0 6.6 23.7 153
23/02/2021 12:50 12.4 62 509.9 392 0.0 7.5 26.9 151
23/02/2021 13:00 12.7 61 471.0 362 0.0 7.7 27.7 162
23/02/2021 13:10 13.1 60 637.0 544 0.0 6.7 24.0 155
23/02/2021 13:20 13.7 59 666.1 596 0.0 7.8 28.1 164
23/02/2021 13:30 13.3 59 588.3 518 0.0 9.6 34.7 164
23/02/2021 13:40 13.6 59 629.4 594 0.0 8.9 31.9 166
23/02/2021 13:50 13.7 58 614.2 592 0.0 7.8 28.1 164
23/02/2021 14:00 14.2 54 604.3 600 0.0 8.1 29.1 154
23/02/2021 14:10 14.1 54 594.4 600 0.0 9.1 32.9 163
23/02/2021 14:20 14.3 54 576.6 600 0.0 8.5 30.6 170
23/02/2021 14:30 14.5 54 557.2 600 0.0 8.9 32.1 166
23/02/2021 14:40 14.4 55 545.6 600 0.0 8.7 31.4 163
23/02/2021 14:50 14.2 54 518.7 600 0.0 8.7 31.4 154
23/02/2021 15:00 14.3 55 489.9 600 0.0 8.9 31.9 158
23/02/2021 15:10 14.0 55 474.9 600 0.0 8.7 31.4 159
23/02/2021 15:20 14.3 56 456.5 600 0.0 8.0 28.7 171
23/02/2021 15:30 14.1 56 432.4 600 0.0 8.1 29.1 162
23/02/2021 15:40 13.8 57 389.5 596 0.0 8.6 30.8 164
23/02/2021 15:50 13.9 57 373.9 600 0.0 7.0 25.3 163
23/02/2021 16:00 14.0 57 336.1 600 0.0 6.7 23.9 161
23/02/2021 16:10 13.8 57 307.7 600 0.0 7.6 27.5 166
23/02/2021 16:20 13.8 57 269.9 600 0.0 6.7 24.0 157
23/02/2021 16:30 13.6 57 233.4 600 0.0 7.4 26.5 148
23/02/2021 16:40 13.6 58 206.4 600 0.0 7.9 28.3 147
23/02/2021 16:50 13.2 59 174.8 600 0.0 8.5 30.6 160
23/02/2021 17:00 13.3 62 135.9 596 0.0 6.6 23.9 153
23/02/2021 17:10 13.1 63 80.1 382 0.0 6.2 22.2 146
23/02/2021 17:20 12.8 65 66.3 504 0.0 6.6 23.8 144
23/02/2021 17:30 12.7 65 53.4 600 0.0 6.6 23.8 149
23/02/2021 17:40 12.5 66 24.0 80 0.0 6.4 23.0 142
23/02/2021 17:50 12.4 67 2.3 0 0.0 6.0 21.5 141
23/02/2021 18:00 12.3 68 0.0 0 0.0 6.1 22.0 149
23/02/2021 18:10 12.2 68 0.0 0 0.0 6.4 23.2 143
23/02/2021 18:20 12.2 68 0.0 0 0.0 6.2 22.4 144
23/02/2021 18:30 12.2 69 0.0 0 0.0 6.1 21.8 146
23/02/2021 18:40 12.1 70 0.0 0 0.0 5.3 19.2 145
23/02/2021 18:50 11.9 71 0.0 0 0.0 4.1 14.7 145
23/02/2021 19:00 11.8 71 0.0 0 0.0 4.7 17.1 147
23/02/2021 19:10 11.9 71 0.0 0 0.0 5.4 19.4 153
23/02/2021 19:20 11.7 71 0.0 0 0.0 6.2 22.3 148
23/02/2021 19:30 11.7 72 0.0 0 0.0 5.1 18.3 146
23/02/2021 19:40 11.7 72 0.0 0 0.0 5.7 20.3 151
23/02/2021 19:50 11.7 73 0.0 0 0.0 6.5 23.3 166
23/02/2021 20:00 11.7 72 0.0 0 0.0 6.3 22.8 152
23/02/2021 20:10 11.8 71 0.0 0 0.0 6.5 23.2 150
23/02/2021 20:20 11.7 72 0.0 0 0.0 7.8 28.0 161
23/02/2021 20:30 11.7 73 0.0 0 0.0 7.8 28.1 163
23/02/2021 20:40 11.6 73 0.0 0 0.0 8.5 30.5 163
23/02/2021 20:50 11.7 72 0.0 0 0.0 8.9 32.1 161
23/02/2021 21:00 11.6 73 0.0 0 0.0 8.2 29.5 164
23/02/2021 21:10 11.5 73 0.0 0 0.0 8.1 29.2 166
23/02/2021 21:20 11.4 74 0.0 0 0.0 9.0 32.5 173
23/02/2021 21:30 11.4 73 0.0 0 0.0 9.6 34.7 167
23/02/2021 21:40 11.4 73 0.0 0 0.0 8.9 31.9 165
23/02/2021 21:50 11.5 73 0.0 0 0.0 8.5 30.6 167
23/02/2021 22:00 11.3 74 0.0 0 0.0 8.8 31.5 168
23/02/2021 22:10 11.2 75 0.0 0 0.0 7.8 27.9 168
23/02/2021 22:20 11.0 75 0.0 0 0.0 8.6 31.1 167
23/02/2021 22:30 11.0 76 0.0 0 0.0 8.2 29.4 168
23/02/2021 22:40 11.1 76 0.0 0 0.0 8.0 28.8 168
23/02/2021 22:50 11.0 76 0.0 0 0.0 7.7 27.6 168
23/02/2021 23:00 10.9 77 0.0 0 0.0 8.2 29.4 165
23/02/2021 23:10 10.9 77 0.0 0 0.0 7.5 27.1 168
23/02/2021 23:20 10.9 77 0.0 0 0.0 7.9 28.6 165
23/02/2021 23:30 10.8 77 0.0 0 0.0 6.6 23.8 170
23/02/2021 23:40 10.8 77 0.0 0 0.0 5.9 21.2 156
23/02/2021 23:50 10.9 77 0.0 0 0.0 6.1 21.8 161
Anterior Página 1 de 1 Siguiente

NOTA: Tipo de datos según el color:
   - Valores diarios o 10 minutos correctos
   - Valores diarios calculados a partir de un número de datos 10 minutos menor que 144 y mayor que 120, o de un número de datos semihorarios menor que 48 y mayor que 40 (caso de las estaciones de INTIA Y Ministerio)
   - Valores diez minutos estimados


Contacto        Enlaces        Aviso legal